sensor_id;sensor_type;location;lat;lon;timestamp;P1;durP1;ratioP1;P2;durP2;ratioP2
54177;SDS011;40085;53.004;6.770;2023-12-29T00:01:55;4.35;;;1.42;;
54177;SDS011;40085;53.004;6.770;2023-12-29T00:04:21;2.53;;;1.40;;
54177;SDS011;40085;53.004;6.770;2023-12-29T00:06:47;2.55;;;1.25;;
54177;SDS011;40085;53.004;6.770;2023-12-29T00:09:16;1.45;;;1.08;;
54177;SDS011;40085;53.004;6.770;2023-12-29T00:11:45;1.95;;;1.10;;
54177;SDS011;40085;53.004;6.770;2023-12-29T00:14:14;0.77;;;0.77;;
54177;SDS011;40085;53.004;6.770;2023-12-29T00:16:40;3.42;;;1.20;;
54177;SDS011;40085;53.004;6.770;2023-12-29T00:19:06;1.48;;;1.15;;
54177;SDS011;40085;53.004;6.770;2023-12-29T00:21:32;1.95;;;1.20;;
54177;SDS011;40085;53.004;6.770;2023-12-29T00:23:57;2.47;;;1.52;;
54177;SDS011;40085;53.004;6.770;2023-12-29T00:26:23;2.65;;;1.25;;
54177;SDS011;40085;53.004;6.770;2023-12-29T00:28:49;2.20;;;1.33;;
54177;SDS011;40085;53.004;6.770;2023-12-29T00:31:15;2.47;;;1.45;;
54177;SDS011;40085;53.004;6.770;2023-12-29T00:33:42;2.47;;;1.02;;
54177;SDS011;40085;53.004;6.770;2023-12-29T00:36:08;1.38;;;0.95;;
54177;SDS011;40085;53.004;6.770;2023-12-29T00:38:39;1.75;;;1.10;;
54177;SDS011;40085;53.004;6.770;2023-12-29T00:41:04;1.50;;;0.90;;
54177;SDS011;40085;53.004;6.770;2023-12-29T00:43:30;3.05;;;1.50;;
54177;SDS011;40085;53.004;6.770;2023-12-29T00:45:56;1.75;;;1.17;;
54177;SDS011;40085;53.004;6.770;2023-12-29T00:48:22;2.40;;;1.00;;
54177;SDS011;40085;53.004;6.770;2023-12-29T00:50:47;2.20;;;1.13;;
54177;SDS011;40085;53.004;6.770;2023-12-29T00:53:13;2.25;;;1.45;;
54177;SDS011;40085;53.004;6.770;2023-12-29T00:55:38;1.93;;;1.13;;
54177;SDS011;40085;53.004;6.770;2023-12-29T00:58:05;1.23;;;1.10;;
54177;SDS011;40085;53.004;6.770;2023-12-29T01:00:30;1.67;;;0.93;;
54177;SDS011;40085;53.004;6.770;2023-12-29T01:02:56;2.00;;;1.40;;
54177;SDS011;40085;53.004;6.770;2023-12-29T01:05:22;1.48;;;1.33;;
54177;SDS011;40085;53.004;6.770;2023-12-29T01:07:48;2.78;;;1.40;;
54177;SDS011;40085;53.004;6.770;2023-12-29T01:10:13;2.85;;;1.33;;
54177;SDS011;40085;53.004;6.770;2023-12-29T01:12:39;3.17;;;1.70;;
54177;SDS011;40085;53.004;6.770;2023-12-29T01:15:05;2.10;;;1.30;;
54177;SDS011;40085;53.004;6.770;2023-12-29T01:17:31;2.47;;;1.67;;
54177;SDS011;40085;53.004;6.770;2023-12-29T01:19:56;1.70;;;1.40;;
54177;SDS011;40085;53.004;6.770;2023-12-29T01:22:22;2.05;;;1.40;;
54177;SDS011;40085;53.004;6.770;2023-12-29T01:24:49;2.63;;;1.20;;
54177;SDS011;40085;53.004;6.770;2023-12-29T01:27:14;2.30;;;1.27;;
54177;SDS011;40085;53.004;6.770;2023-12-29T01:29:40;2.55;;;1.35;;
54177;SDS011;40085;53.004;6.770;2023-12-29T01:32:05;2.88;;;1.30;;
54177;SDS011;40085;53.004;6.770;2023-12-29T01:34:33;2.08;;;1.10;;
54177;SDS011;40085;53.004;6.770;2023-12-29T01:36:59;2.30;;;1.33;;
54177;SDS011;40085;53.004;6.770;2023-12-29T01:39:27;1.55;;;1.35;;
54177;SDS011;40085;53.004;6.770;2023-12-29T01:41:54;1.55;;;1.40;;
54177;SDS011;40085;53.004;6.770;2023-12-29T01:44:21;2.75;;;1.35;;
54177;SDS011;40085;53.004;6.770;2023-12-29T01:46:51;1.83;;;1.52;;
54177;SDS011;40085;53.004;6.770;2023-12-29T01:49:19;3.00;;;1.60;;
54177;SDS011;40085;53.004;6.770;2023-12-29T01:51:55;2.88;;;1.63;;
54177;SDS011;40085;53.004;6.770;2023-12-29T01:54:24;2.35;;;1.60;;
54177;SDS011;40085;53.004;6.770;2023-12-29T01:56:52;2.20;;;1.63;;
54177;SDS011;40085;53.004;6.770;2023-12-29T01:59:21;1.67;;;1.30;;
54177;SDS011;40085;53.004;6.770;2023-12-29T02:01:48;1.52;;;1.42;;
54177;SDS011;40085;53.004;6.770;2023-12-29T02:04:13;1.88;;;1.52;;
54177;SDS011;40085;53.004;6.770;2023-12-29T02:06:40;1.77;;;0.90;;
54177;SDS011;40085;53.004;6.770;2023-12-29T02:09:06;1.52;;;1.17;;
54177;SDS011;40085;53.004;6.770;2023-12-29T02:11:33;2.55;;;1.00;;
54177;SDS011;40085;53.004;6.770;2023-12-29T02:14:01;1.70;;;1.27;;
54177;SDS011;40085;53.004;6.770;2023-12-29T02:16:38;1.38;;;0.80;;
54177;SDS011;40085;53.004;6.770;2023-12-29T02:22:27;1.95;;;1.15;;
54177;SDS011;40085;53.004;6.770;2023-12-29T02:24:53;2.47;;;1.27;;
54177;SDS011;40085;53.004;6.770;2023-12-29T02:27:22;1.75;;;0.95;;
54177;SDS011;40085;53.004;6.770;2023-12-29T02:30:17;3.55;;;1.52;;
54177;SDS011;40085;53.004;6.770;2023-12-29T02:32:45;3.50;;;1.55;;
54177;SDS011;40085;53.004;6.770;2023-12-29T02:35:14;1.92;;;1.30;;
54177;SDS011;40085;53.004;6.770;2023-12-29T02:37:46;4.93;;;1.85;;
54177;SDS011;40085;53.004;6.770;2023-12-29T02:40:13;1.80;;;1.45;;
54177;SDS011;40085;53.004;6.770;2023-12-29T02:42:44;1.35;;;1.25;;
54177;SDS011;40085;53.004;6.770;2023-12-29T02:45:14;1.98;;;1.40;;
54177;SDS011;40085;53.004;6.770;2023-12-29T02:47:43;2.45;;;1.35;;
54177;SDS011;40085;53.004;6.770;2023-12-29T02:50:09;1.90;;;1.35;;
54177;SDS011;40085;53.004;6.770;2023-12-29T02:52:35;2.45;;;1.30;;
54177;SDS011;40085;53.004;6.770;2023-12-29T02:55:01;1.80;;;1.23;;
54177;SDS011;40085;53.004;6.770;2023-12-29T02:57:27;1.50;;;1.23;;
54177;SDS011;40085;53.004;6.770;2023-12-29T02:59:52;1.13;;;1.00;;
54177;SDS011;40085;53.004;6.770;2023-12-29T03:02:19;3.67;;;1.65;;
54177;SDS011;40085;53.004;6.770;2023-12-29T03:04:44;1.77;;;1.23;;
54177;SDS011;40085;53.004;6.770;2023-12-29T03:07:10;2.92;;;1.50;;
54177;SDS011;40085;53.004;6.770;2023-12-29T03:09:36;2.40;;;1.30;;
54177;SDS011;40085;53.004;6.770;2023-12-29T03:12:02;0.98;;;0.98;;
54177;SDS011;40085;53.004;6.770;2023-12-29T03:14:28;1.35;;;0.93;;
54177;SDS011;40085;53.004;6.770;2023-12-29T03:16:54;2.28;;;1.40;;
54177;SDS011;40085;53.004;6.770;2023-12-29T03:19:20;1.40;;;1.17;;
54177;SDS011;40085;53.004;6.770;2023-12-29T03:21:46;2.72;;;1.45;;
54177;SDS011;40085;53.004;6.770;2023-12-29T03:24:11;3.33;;;1.73;;
54177;SDS011;40085;53.004;6.770;2023-12-29T03:26:37;1.50;;;1.17;;
54177;SDS011;40085;53.004;6.770;2023-12-29T03:29:03;1.50;;;1.38;;
54177;SDS011;40085;53.004;6.770;2023-12-29T03:31:29;1.95;;;1.15;;
54177;SDS011;40085;53.004;6.770;2023-12-29T03:33:55;2.92;;;1.80;;
54177;SDS011;40085;53.004;6.770;2023-12-29T03:36:20;2.20;;;1.50;;
54177;SDS011;40085;53.004;6.770;2023-12-29T03:38:46;2.85;;;1.48;;
54177;SDS011;40085;53.004;6.770;2023-12-29T03:41:12;4.40;;;2.15;;
54177;SDS011;40085;53.004;6.770;2023-12-29T03:43:37;2.80;;;1.55;;
54177;SDS011;40085;53.004;6.770;2023-12-29T03:46:03;1.98;;;1.17;;
54177;SDS011;40085;53.004;6.770;2023-12-29T03:48:46;2.15;;;1.55;;
54177;SDS011;40085;53.004;6.770;2023-12-29T03:51:13;3.05;;;1.30;;
54177;SDS011;40085;53.004;6.770;2023-12-29T03:53:39;1.48;;;1.20;;
54177;SDS011;40085;53.004;6.770;2023-12-29T03:56:08;3.65;;;1.50;;
54177;SDS011;40085;53.004;6.770;2023-12-29T03:58:38;3.20;;;1.55;;
54177;SDS011;40085;53.004;6.770;2023-12-29T04:01:04;2.63;;;1.30;;
54177;SDS011;40085;53.004;6.770;2023-12-29T04:03:34;2.55;;;1.75;;
54177;SDS011;40085;53.004;6.770;2023-12-29T04:05:59;3.70;;;1.70;;
54177;SDS011;40085;53.004;6.770;2023-12-29T04:08:28;2.90;;;1.77;;
54177;SDS011;40085;53.004;6.770;2023-12-29T04:10:54;4.10;;;1.90;;
54177;SDS011;40085;53.004;6.770;2023-12-29T04:13:19;3.30;;;1.60;;
54177;SDS011;40085;53.004;6.770;2023-12-29T04:15:45;2.60;;;1.58;;
54177;SDS011;40085;53.004;6.770;2023-12-29T04:18:10;3.60;;;1.55;;
54177;SDS011;40085;53.004;6.770;2023-12-29T04:20:36;1.73;;;1.23;;
54177;SDS011;40085;53.004;6.770;2023-12-29T04:23:02;3.13;;;1.92;;
54177;SDS011;40085;53.004;6.770;2023-12-29T04:25:30;2.17;;;1.63;;
54177;SDS011;40085;53.004;6.770;2023-12-29T04:27:56;3.28;;;2.00;;
54177;SDS011;40085;53.004;6.770;2023-12-29T04:30:21;4.45;;;2.10;;
54177;SDS011;40085;53.004;6.770;2023-12-29T04:32:47;1.48;;;1.33;;
54177;SDS011;40085;53.004;6.770;2023-12-29T04:35:12;3.75;;;2.20;;
54177;SDS011;40085;53.004;6.770;2023-12-29T04:37:40;3.60;;;1.40;;
54177;SDS011;40085;53.004;6.770;2023-12-29T04:40:06;2.30;;;1.20;;
54177;SDS011;40085;53.004;6.770;2023-12-29T04:42:32;2.28;;;1.33;;
54177;SDS011;40085;53.004;6.770;2023-12-29T04:44:58;3.55;;;1.65;;
54177;SDS011;40085;53.004;6.770;2023-12-29T04:47:24;5.95;;;2.75;;
54177;SDS011;40085;53.004;6.770;2023-12-29T04:49:49;3.90;;;1.80;;
54177;SDS011;40085;53.004;6.770;2023-12-29T04:52:15;2.25;;;1.70;;
54177;SDS011;40085;53.004;6.770;2023-12-29T04:54:40;3.28;;;2.00;;
54177;SDS011;40085;53.004;6.770;2023-12-29T04:57:06;2.47;;;1.48;;
54177;SDS011;40085;53.004;6.770;2023-12-29T04:59:32;4.22;;;1.90;;
54177;SDS011;40085;53.004;6.770;2023-12-29T05:01:57;2.72;;;1.80;;
54177;SDS011;40085;53.004;6.770;2023-12-29T05:04:23;4.50;;;2.85;;
54177;SDS011;40085;53.004;6.770;2023-12-29T05:06:49;5.00;;;1.88;;
54177;SDS011;40085;53.004;6.770;2023-12-29T05:09:14;3.38;;;2.00;;
54177;SDS011;40085;53.004;6.770;2023-12-29T05:11:40;2.42;;;2.00;;
54177;SDS011;40085;53.004;6.770;2023-12-29T05:14:05;3.63;;;1.95;;
54177;SDS011;40085;53.004;6.770;2023-12-29T05:16:31;6.57;;;2.08;;
54177;SDS011;40085;53.004;6.770;2023-12-29T05:18:57;2.47;;;1.70;;
54177;SDS011;40085;53.004;6.770;2023-12-29T05:21:22;5.18;;;1.95;;
54177;SDS011;40085;53.004;6.770;2023-12-29T05:23:49;5.47;;;1.95;;
54177;SDS011;40085;53.004;6.770;2023-12-29T05:26:15;3.22;;;1.75;;
54177;SDS011;40085;53.004;6.770;2023-12-29T05:28:41;3.78;;;1.35;;
54177;SDS011;40085;53.004;6.770;2023-12-29T05:31:06;3.03;;;1.90;;
54177;SDS011;40085;53.004;6.770;2023-12-29T05:33:33;2.97;;;1.83;;
54177;SDS011;40085;53.004;6.770;2023-12-29T05:36:04;4.70;;;2.22;;
54177;SDS011;40085;53.004;6.770;2023-12-29T05:38:35;5.75;;;2.70;;
54177;SDS011;40085;53.004;6.770;2023-12-29T05:41:01;3.60;;;1.95;;
54177;SDS011;40085;53.004;6.770;2023-12-29T05:43:29;3.78;;;1.67;;
54177;SDS011;40085;53.004;6.770;2023-12-29T05:45:56;4.10;;;1.85;;
54177;SDS011;40085;53.004;6.770;2023-12-29T05:48:22;3.42;;;2.22;;
54177;SDS011;40085;53.004;6.770;2023-12-29T05:50:49;4.10;;;2.30;;
54177;SDS011;40085;53.004;6.770;2023-12-29T05:53:15;2.63;;;1.52;;
54177;SDS011;40085;53.004;6.770;2023-12-29T05:55:41;4.28;;;1.88;;
54177;SDS011;40085;53.004;6.770;2023-12-29T05:58:07;3.28;;;1.60;;
54177;SDS011;40085;53.004;6.770;2023-12-29T06:00:32;2.72;;;1.60;;
54177;SDS011;40085;53.004;6.770;2023-12-29T06:02:58;4.57;;;1.80;;
54177;SDS011;40085;53.004;6.770;2023-12-29T06:05:24;3.10;;;1.80;;
54177;SDS011;40085;53.004;6.770;2023-12-29T06:07:50;3.38;;;1.48;;
54177;SDS011;40085;53.004;6.770;2023-12-29T06:10:15;3.63;;;1.92;;
54177;SDS011;40085;53.004;6.770;2023-12-29T06:12:41;5.20;;;1.90;;
54177;SDS011;40085;53.004;6.770;2023-12-29T06:15:07;5.03;;;1.67;;
54177;SDS011;40085;53.004;6.770;2023-12-29T06:17:33;3.90;;;1.80;;
54177;SDS011;40085;53.004;6.770;2023-12-29T06:20:00;2.63;;;1.55;;
54177;SDS011;40085;53.004;6.770;2023-12-29T06:22:27;3.50;;;2.10;;
54177;SDS011;40085;53.004;6.770;2023-12-29T06:24:53;4.15;;;2.05;;
54177;SDS011;40085;53.004;6.770;2023-12-29T06:27:18;3.25;;;1.63;;
54177;SDS011;40085;53.004;6.770;2023-12-29T06:29:44;3.28;;;1.77;;
54177;SDS011;40085;53.004;6.770;2023-12-29T06:32:10;4.60;;;2.30;;
54177;SDS011;40085;53.004;6.770;2023-12-29T06:34:36;3.75;;;2.08;;
54177;SDS011;40085;53.004;6.770;2023-12-29T06:37:01;6.60;;;2.17;;
54177;SDS011;40085;53.004;6.770;2023-12-29T06:39:27;4.55;;;1.88;;
54177;SDS011;40085;53.004;6.770;2023-12-29T06:41:53;3.28;;;1.77;;
54177;SDS011;40085;53.004;6.770;2023-12-29T06:44:18;3.78;;;1.90;;
54177;SDS011;40085;53.004;6.770;2023-12-29T06:46:44;3.42;;;2.08;;
54177;SDS011;40085;53.004;6.770;2023-12-29T06:49:10;4.70;;;2.00;;
54177;SDS011;40085;53.004;6.770;2023-12-29T06:51:35;3.67;;;1.95;;
54177;SDS011;40085;53.004;6.770;2023-12-29T06:54:03;5.07;;;2.30;;
54177;SDS011;40085;53.004;6.770;2023-12-29T06:56:30;4.25;;;2.03;;
54177;SDS011;40085;53.004;6.770;2023-12-29T06:58:56;2.80;;;1.90;;
54177;SDS011;40085;53.004;6.770;2023-12-29T07:01:22;5.55;;;2.42;;
54177;SDS011;40085;53.004;6.770;2023-12-29T07:03:47;2.75;;;1.63;;
54177;SDS011;40085;53.004;6.770;2023-12-29T07:06:13;5.30;;;2.47;;
54177;SDS011;40085;53.004;6.770;2023-12-29T07:08:39;5.30;;;1.90;;
54177;SDS011;40085;53.004;6.770;2023-12-29T07:11:08;3.75;;;2.13;;
54177;SDS011;40085;53.004;6.770;2023-12-29T07:13:36;4.38;;;2.85;;
54177;SDS011;40085;53.004;6.770;2023-12-29T07:16:01;6.43;;;2.13;;
54177;SDS011;40085;53.004;6.770;2023-12-29T07:18:27;4.88;;;2.72;;
54177;SDS011;40085;53.004;6.770;2023-12-29T07:20:55;3.80;;;2.33;;
54177;SDS011;40085;53.004;6.770;2023-12-29T07:23:21;3.92;;;2.20;;
54177;SDS011;40085;53.004;6.770;2023-12-29T07:25:47;4.47;;;2.15;;
54177;SDS011;40085;53.004;6.770;2023-12-29T07:28:13;5.72;;;2.85;;
54177;SDS011;40085;53.004;6.770;2023-12-29T07:30:39;4.00;;;2.15;;
54177;SDS011;40085;53.004;6.770;2023-12-29T07:33:04;5.32;;;2.40;;
54177;SDS011;40085;53.004;6.770;2023-12-29T07:35:30;7.15;;;2.53;;
54177;SDS011;40085;53.004;6.770;2023-12-29T07:37:56;5.82;;;2.67;;
54177;SDS011;40085;53.004;6.770;2023-12-29T07:40:22;3.90;;;1.90;;
54177;SDS011;40085;53.004;6.770;2023-12-29T07:42:47;5.97;;;2.42;;
54177;SDS011;40085;53.004;6.770;2023-12-29T07:45:15;2.58;;;1.88;;
54177;SDS011;40085;53.004;6.770;2023-12-29T07:47:41;5.00;;;2.15;;
54177;SDS011;40085;53.004;6.770;2023-12-29T07:50:07;3.78;;;2.25;;
54177;SDS011;40085;53.004;6.770;2023-12-29T07:52:33;2.85;;;1.40;;
54177;SDS011;40085;53.004;6.770;2023-12-29T07:54:59;8.18;;;2.75;;
54177;SDS011;40085;53.004;6.770;2023-12-29T07:57:25;5.20;;;2.55;;
54177;SDS011;40085;53.004;6.770;2023-12-29T07:59:51;5.50;;;2.60;;
54177;SDS011;40085;53.004;6.770;2023-12-29T08:02:16;3.40;;;1.83;;
54177;SDS011;40085;53.004;6.770;2023-12-29T19:14:19;1.90;;;0.82;;
54177;SDS011;40085;53.004;6.770;2023-12-29T19:16:46;1.13;;;0.98;;
54177;SDS011;40085;53.004;6.770;2023-12-29T19:19:12;1.38;;;0.80;;
54177;SDS011;40085;53.004;6.770;2023-12-29T19:21:38;0.60;;;0.60;;
54177;SDS011;40085;53.004;6.770;2023-12-29T19:24:09;2.20;;;1.10;;
54177;SDS011;40085;53.004;6.770;2023-12-29T19:26:34;2.58;;;1.08;;
54177;SDS011;40085;53.004;6.770;2023-12-29T19:29:01;0.60;;;0.60;;
54177;SDS011;40085;53.004;6.770;2023-12-29T19:31:26;1.38;;;0.80;;
54177;SDS011;40085;53.004;6.770;2023-12-29T19:33:52;2.30;;;1.02;;
54177;SDS011;40085;53.004;6.770;2023-12-29T19:36:18;2.60;;;1.17;;
54177;SDS011;40085;53.004;6.770;2023-12-29T19:38:44;0.85;;;0.80;;
54177;SDS011;40085;53.004;6.770;2023-12-29T19:41:15;0.65;;;0.65;;
54177;SDS011;40085;53.004;6.770;2023-12-29T19:43:44;1.38;;;0.90;;
54177;SDS011;40085;53.004;6.770;2023-12-29T19:46:09;0.60;;;0.60;;
54177;SDS011;40085;53.004;6.770;2023-12-29T19:48:35;2.15;;;0.90;;
54177;SDS011;40085;53.004;6.770;2023-12-29T19:51:01;1.52;;;1.13;;
54177;SDS011;40085;53.004;6.770;2023-12-29T19:53:27;1.48;;;1.00;;
54177;SDS011;40085;53.004;6.770;2023-12-29T19:55:53;1.27;;;0.93;;
54177;SDS011;40085;53.004;6.770;2023-12-29T19:58:19;1.92;;;0.90;;
54177;SDS011;40085;53.004;6.770;2023-12-29T20:00:48;0.60;;;0.60;;
54177;SDS011;40085;53.004;6.770;2023-12-29T20:03:13;0.70;;;0.70;;
54177;SDS011;40085;53.004;6.770;2023-12-29T20:05:39;1.40;;;1.05;;
54177;SDS011;40085;53.004;6.770;2023-12-29T20:08:06;1.17;;;0.68;;
54177;SDS011;40085;53.004;6.770;2023-12-29T20:10:32;1.17;;;0.80;;
54177;SDS011;40085;53.004;6.770;2023-12-29T20:12:58;0.93;;;0.77;;
54177;SDS011;40085;53.004;6.770;2023-12-29T20:15:24;1.55;;;1.08;;
54177;SDS011;40085;53.004;6.770;2023-12-29T20:17:50;0.80;;;0.73;;
54177;SDS011;40085;53.004;6.770;2023-12-29T20:20:15;1.00;;;0.90;;
54177;SDS011;40085;53.004;6.770;2023-12-29T20:22:42;2.92;;;0.95;;
54177;SDS011;40085;53.004;6.770;2023-12-29T20:25:09;0.75;;;0.75;;
54177;SDS011;40085;53.004;6.770;2023-12-29T20:27:35;0.77;;;0.73;;
54177;SDS011;40085;53.004;6.770;2023-12-29T20:30:01;1.50;;;1.00;;
54177;SDS011;40085;53.004;6.770;2023-12-29T20:32:29;1.50;;;1.13;;
54177;SDS011;40085;53.004;6.770;2023-12-29T20:34:55;1.13;;;1.00;;
54177;SDS011;40085;53.004;6.770;2023-12-29T20:37:21;1.33;;;1.15;;
54177;SDS011;40085;53.004;6.770;2023-12-29T20:39:47;0.82;;;0.70;;
54177;SDS011;40085;53.004;6.770;2023-12-29T20:42:12;1.45;;;0.90;;
54177;SDS011;40085;53.004;6.770;2023-12-29T20:44:38;0.98;;;0.88;;
54177;SDS011;40085;53.004;6.770;2023-12-29T20:47:04;1.10;;;1.00;;
54177;SDS011;40085;53.004;6.770;2023-12-29T20:49:29;0.85;;;0.80;;
54177;SDS011;40085;53.004;6.770;2023-12-29T20:51:55;0.77;;;0.77;;
54177;SDS011;40085;53.004;6.770;2023-12-29T20:54:21;0.93;;;0.82;;
54177;SDS011;40085;53.004;6.770;2023-12-29T20:56:47;1.35;;;0.75;;
54177;SDS011;40085;53.004;6.770;2023-12-29T20:59:13;1.02;;;0.70;;
54177;SDS011;40085;53.004;6.770;2023-12-29T21:01:38;1.20;;;0.90;;
54177;SDS011;40085;53.004;6.770;2023-12-29T21:04:05;0.77;;;0.70;;
54177;SDS011;40085;53.004;6.770;2023-12-29T21:06:35;1.38;;;1.05;;
54177;SDS011;40085;53.004;6.770;2023-12-29T21:09:01;1.25;;;0.80;;
54177;SDS011;40085;53.004;6.770;2023-12-29T21:11:28;0.82;;;0.82;;
54177;SDS011;40085;53.004;6.770;2023-12-29T21:13:53;1.10;;;0.82;;
54177;SDS011;40085;53.004;6.770;2023-12-29T21:16:19;1.38;;;1.20;;
54177;SDS011;40085;53.004;6.770;2023-12-29T21:18:45;1.00;;;0.90;;
54177;SDS011;40085;53.004;6.770;2023-12-29T21:21:11;1.13;;;0.95;;
54177;SDS011;40085;53.004;6.770;2023-12-29T21:23:37;1.50;;;0.85;;
54177;SDS011;40085;53.004;6.770;2023-12-29T21:26:03;0.95;;;0.80;;
54177;SDS011;40085;53.004;6.770;2023-12-29T21:28:29;1.27;;;0.88;;
54177;SDS011;40085;53.004;6.770;2023-12-29T21:30:55;1.00;;;0.90;;
54177;SDS011;40085;53.004;6.770;2023-12-29T21:33:21;1.10;;;1.00;;
54177;SDS011;40085;53.004;6.770;2023-12-29T21:35:47;2.00;;;0.98;;
54177;SDS011;40085;53.004;6.770;2023-12-29T21:38:14;1.58;;;0.80;;
54177;SDS011;40085;53.004;6.770;2023-12-29T21:40:40;1.05;;;0.93;;
54177;SDS011;40085;53.004;6.770;2023-12-29T21:43:06;1.35;;;0.95;;
54177;SDS011;40085;53.004;6.770;2023-12-29T21:45:35;1.00;;;0.95;;
54177;SDS011;40085;53.004;6.770;2023-12-29T21:48:00;1.15;;;1.02;;
54177;SDS011;40085;53.004;6.770;2023-12-29T21:50:26;1.58;;;0.88;;
54177;SDS011;40085;53.004;6.770;2023-12-29T21:52:53;1.02;;;0.93;;
54177;SDS011;40085;53.004;6.770;2023-12-29T21:55:19;0.82;;;0.70;;
54177;SDS011;40085;53.004;6.770;2023-12-29T21:57:45;1.88;;;1.00;;
54177;SDS011;40085;53.004;6.770;2023-12-29T22:00:12;0.80;;;0.80;;
54177;SDS011;40085;53.004;6.770;2023-12-29T22:02:38;1.88;;;0.90;;
54177;SDS011;40085;53.004;6.770;2023-12-29T22:05:05;0.95;;;0.88;;
54177;SDS011;40085;53.004;6.770;2023-12-29T22:07:31;2.17;;;1.15;;
54177;SDS011;40085;53.004;6.770;2023-12-29T22:09:56;1.27;;;0.90;;
54177;SDS011;40085;53.004;6.770;2023-12-29T22:12:22;0.65;;;0.65;;
54177;SDS011;40085;53.004;6.770;2023-12-29T22:14:48;0.88;;;0.80;;
54177;SDS011;40085;53.004;6.770;2023-12-29T22:17:13;1.20;;;1.10;;
54177;SDS011;40085;53.004;6.770;2023-12-29T22:19:39;1.27;;;0.70;;
54177;SDS011;40085;53.004;6.770;2023-12-29T22:22:05;1.25;;;0.95;;
54177;SDS011;40085;53.004;6.770;2023-12-29T22:24:31;1.20;;;0.70;;
54177;SDS011;40085;53.004;6.770;2023-12-29T22:26:57;1.15;;;0.95;;
54177;SDS011;40085;53.004;6.770;2023-12-29T22:29:24;1.20;;;0.93;;
54177;SDS011;40085;53.004;6.770;2023-12-29T22:31:50;0.73;;;0.73;;
54177;SDS011;40085;53.004;6.770;2023-12-29T22:34:15;2.78;;;1.05;;
54177;SDS011;40085;53.004;6.770;2023-12-29T22:36:41;0.75;;;0.73;;
54177;SDS011;40085;53.004;6.770;2023-12-29T22:39:07;0.70;;;0.70;;
54177;SDS011;40085;53.004;6.770;2023-12-29T22:41:33;0.80;;;0.80;;
54177;SDS011;40085;53.004;6.770;2023-12-29T22:43:58;0.80;;;0.80;;
54177;SDS011;40085;53.004;6.770;2023-12-29T22:46:24;0.95;;;0.80;;
54177;SDS011;40085;53.004;6.770;2023-12-29T22:48:50;1.38;;;0.90;;
54177;SDS011;40085;53.004;6.770;2023-12-29T22:51:17;0.85;;;0.70;;
54177;SDS011;40085;53.004;6.770;2023-12-29T22:53:42;1.08;;;0.80;;
54177;SDS011;40085;53.004;6.770;2023-12-29T22:56:08;2.50;;;1.10;;
54177;SDS011;40085;53.004;6.770;2023-12-29T22:58:34;1.00;;;0.90;;
54177;SDS011;40085;53.004;6.770;2023-12-29T23:01:00;1.50;;;0.88;;
54177;SDS011;40085;53.004;6.770;2023-12-29T23:03:25;1.08;;;0.95;;
54177;SDS011;40085;53.004;6.770;2023-12-29T23:05:51;0.70;;;0.70;;
54177;SDS011;40085;53.004;6.770;2023-12-29T23:08:17;1.38;;;0.88;;
54177;SDS011;40085;53.004;6.770;2023-12-29T23:10:42;1.73;;;0.90;;
54177;SDS011;40085;53.004;6.770;2023-12-29T23:13:08;0.90;;;0.82;;
54177;SDS011;40085;53.004;6.770;2023-12-29T23:15:37;2.50;;;0.95;;
54177;SDS011;40085;53.004;6.770;2023-12-29T23:18:03;1.33;;;0.90;;
54177;SDS011;40085;53.004;6.770;2023-12-29T23:20:30;0.80;;;0.80;;
54177;SDS011;40085;53.004;6.770;2023-12-29T23:22:55;0.60;;;0.60;;
54177;SDS011;40085;53.004;6.770;2023-12-29T23:25:21;1.27;;;0.90;;
54177;SDS011;40085;53.004;6.770;2023-12-29T23:27:48;0.70;;;0.70;;
54177;SDS011;40085;53.004;6.770;2023-12-29T23:30:14;1.20;;;1.10;;
54177;SDS011;40085;53.004;6.770;2023-12-29T23:32:40;1.08;;;0.82;;
54177;SDS011;40085;53.004;6.770;2023-12-29T23:35:06;2.50;;;0.95;;
54177;SDS011;40085;53.004;6.770;2023-12-29T23:37:32;0.60;;;0.60;;
54177;SDS011;40085;53.004;6.770;2023-12-29T23:39:58;1.48;;;0.85;;
54177;SDS011;40085;53.004;6.770;2023-12-29T23:42:24;1.20;;;0.70;;
54177;SDS011;40085;53.004;6.770;2023-12-29T23:44:50;1.27;;;0.90;;
54177;SDS011;40085;53.004;6.770;2023-12-29T23:47:17;2.03;;;0.93;;
54177;SDS011;40085;53.004;6.770;2023-12-29T23:49:42;2.38;;;2.05;;
54177;SDS011;40085;53.004;6.770;2023-12-29T23:52:09;2.15;;;1.40;;
54177;SDS011;40085;53.004;6.770;2023-12-29T23:54:35;2.13;;;1.10;;
54177;SDS011;40085;53.004;6.770;2023-12-29T23:57:01;1.98;;;1.30;;
54177;SDS011;40085;53.004;6.770;2023-12-29T23:59:27;1.20;;;1.02;;
